Time;durP1;ratioP1;P1;durP2;ratioP2;P2;SDS_P1;SDS_P2;PMS_P1;PMS_P2;Temp;Humidity;BMP_temperature;BMP_pressure;BME280_temperature;BME280_humidity;BME280_pressure;Samples;Min_cycle;Max_cycle;Signal;HPM_P1;HPM_P2
2022/07/30 00:01:22;;;;;;;13.27;6.95;;;14.90;99.90;;;;;;5058115;28;20164;-78
2022/07/30 00:03:48;;;;;;;7.57;5.03;;;14.90;99.90;;;;;;5101262;28;20142;-77
2022/07/30 00:06:14;;;;;;;10.25;6.00;;;14.80;99.90;;;;;;5074355;28;20075;-77
2022/07/30 00:08:39;;;;;;;8.98;5.72;;;14.80;99.90;;;;;;5072830;28;20446;-78
2022/07/30 00:11:05;;;;;;;10.57;6.05;;;14.80;99.90;;;;;;5075702;28;20124;-78
2022/07/30 00:13:30;;;;;;;10.45;6.22;;;14.70;99.90;;;;;;5093892;28;20911;-78
2022/07/30 00:15:56;;;;;;;7.07;5.75;;;14.70;99.90;;;;;;5076042;28;20047;-78
2022/07/30 00:18:22;;;;;;;13.43;6.13;;;14.60;99.90;;;;;;5093006;28;20462;-78
2022/07/30 00:20:47;;;;;;;9.98;6.30;;;14.70;99.90;;;;;;5073714;28;20036;-78
2022/07/30 00:23:13;;;;;;;8.25;5.95;;;14.60;99.90;;;;;;5074845;28;20384;-78
2022/07/30 00:25:39;;;;;;;11.40;5.63;;;14.60;99.90;;;;;;5073510;28;20040;-79
2022/07/30 00:28:04;;;;;;;10.80;6.05;;;14.50;99.90;;;;;;5093282;28;20040;-78
2022/07/30 00:30:30;;;;;;;11.63;6.82;;;14.50;99.90;;;;;;5058074;28;20040;-79
2022/07/30 00:32:56;;;;;;;8.32;6.10;;;14.50;99.90;;;;;;5074262;28;20434;-79
2022/07/30 00:35:21;;;;;;;10.60;6.88;;;14.50;99.90;;;;;;5074574;28;20522;-78
2022/07/30 00:37:47;;;;;;;12.85;6.45;;;14.40;99.90;;;;;;5074786;28;20407;-79
2022/07/30 00:40:13;;;;;;;8.95;5.68;;;14.40;99.90;;;;;;5074596;28;20051;-79
2022/07/30 00:42:44;;;;;;;7.85;6.13;;;14.30;99.90;;;;;;5058096;28;20048;-79
2022/07/30 00:45:11;;;;;;;10.43;6.07;;;14.30;99.90;;;;;;5073223;28;20044;-79
2022/07/30 00:47:37;;;;;;;10.43;6.22;;;14.30;99.90;;;;;;5074514;28;20055;-79
2022/07/30 00:50:06;;;;;;;11.90;6.53;;;14.30;99.90;;;;;;5074019;28;20502;-79
2022/07/30 00:52:32;;;;;;;8.70;5.30;;;14.30;99.90;;;;;;5073664;28;20043;-79
2022/07/30 00:54:59;;;;;;;12.90;7.03;;;14.30;99.90;;;;;;5074412;28;20039;-79
2022/07/30 00:57:26;;;;;;;14.65;7.07;;;14.20;99.90;;;;;;5093414;28;20044;-79
2022/07/30 00:59:52;;;;;;;11.27;7.20;;;14.20;99.90;;;;;;5070426;28;20048;-79
2022/07/30 01:02:17;;;;;;;10.52;6.55;;;14.20;99.90;;;;;;5073279;28;20043;-79
2022/07/30 01:04:43;;;;;;;11.57;7.05;;;14.20;99.90;;;;;;5088585;28;20051;-79
2022/07/30 01:07:09;;;;;;;10.68;6.93;;;14.00;99.90;;;;;;5057311;28;20040;-79
2022/07/30 01:09:36;;;;;;;9.95;6.88;;;14.00;99.90;;;;;;5072253;28;20086;-79
2022/07/30 01:12:02;;;;;;;8.63;6.18;;;13.90;99.90;;;;;;5073807;28;20036;-79
2022/07/30 01:14:27;;;;;;;11.30;6.32;;;14.00;99.90;;;;;;5073732;28;20039;-79
2022/07/30 01:16:53;;;;;;;10.32;6.32;;;14.00;99.90;;;;;;5068953;28;20045;-79
2022/07/30 01:22:27;;;;;;;9.35;6.47;;;14.00;99.90;;;;;;5071906;28;20461;-79
2022/07/30 01:25:02;;;;;;;9.13;6.88;;;13.90;99.90;;;;;;5084454;28;20075;-79
2022/07/30 01:27:31;;;;;;;11.98;7.07;;;13.90;99.90;;;;;;5076441;28;20050;-79
2022/07/30 01:30:00;;;;;;;7.63;6.43;;;13.90;99.90;;;;;;5057418;28;20537;-79
2022/07/30 01:32:26;;;;;;;11.45;6.88;;;13.90;99.90;;;;;;5093334;28;20033;-79
2022/07/30 01:34:54;;;;;;;7.75;5.88;;;13.90;99.90;;;;;;5075014;28;20044;-79
2022/07/30 01:37:20;;;;;;;13.48;5.88;;;13.80;99.90;;;;;;5058224;28;20050;-79
2022/07/30 01:39:48;;;;;;;15.65;6.70;;;13.80;99.90;;;;;;5074452;28;20063;-79
2022/07/30 01:42:14;;;;;;;12.60;7.10;;;13.70;99.90;;;;;;5074825;28;20047;-79
2022/07/30 01:44:42;;;;;;;8.65;7.15;;;13.70;99.90;;;;;;5068989;28;20044;-79
2022/07/30 01:47:09;;;;;;;13.15;6.35;;;13.60;99.90;;;;;;5073410;28;20047;-79
2022/07/30 01:49:36;;;;;;;8.88;6.43;;;13.70;99.90;;;;;;5074392;28;20044;-79
2022/07/30 01:52:04;;;;;;;8.63;6.72;;;13.60;99.90;;;;;;5075322;28;20044;-79
2022/07/30 01:54:32;;;;;;;10.07;6.22;;;13.60;99.90;;;;;;5067449;28;20518;-79
2022/07/30 01:56:59;;;;;;;11.10;6.53;;;13.60;99.90;;;;;;5069158;28;20042;-79
2022/07/30 01:59:28;;;;;;;10.48;6.93;;;13.60;99.90;;;;;;5070933;28;20036;-79
2022/07/30 02:01:55;;;;;;;9.23;6.43;;;13.50;99.90;;;;;;5058241;28;20128;-79
2022/07/30 02:04:20;;;;;;;11.43;6.80;;;13.50;99.90;;;;;;5073154;28;20098;-79
2022/07/30 02:07:01;;;;;;;9.95;7.10;;;13.30;99.90;;;;;;5071835;28;20040;-79
2022/07/30 02:09:42;;;;;;;8.90;6.60;;;13.40;99.90;;;;;;5074230;28;20055;-79
2022/07/30 02:12:29;;;;;;;11.40;6.60;;;13.50;99.90;;;;;;5092057;28;20076;-79
2022/07/30 02:15:10;;;;;;;9.23;6.32;;;13.40;99.90;;;;;;5076185;28;20483;-79
2022/07/30 02:17:42;;;;;;;8.82;6.18;;;13.30;99.90;;;;;;5078443;28;20557;-79
2022/07/30 02:20:11;;;;;;;13.17;7.33;;;13.30;99.90;;;;;;5080477;28;20040;-79
2022/07/30 02:22:41;;;;;;;11.55;7.20;;;13.30;99.90;;;;;;5074477;28;20067;-79
2022/07/30 02:25:09;;;;;;;13.40;7.00;;;13.30;99.90;;;;;;5079679;28;20051;-79
2022/07/30 02:27:37;;;;;;;10.50;7.07;;;13.20;99.90;;;;;;5058002;28;20067;-79
2022/07/30 02:30:03;;;;;;;13.20;7.95;;;13.30;99.90;;;;;;5079201;28;20146;-80
2022/07/30 02:32:34;;;;;;;11.05;7.15;;;13.30;99.90;;;;;;5079034;28;20051;-80
2022/07/30 02:35:09;;;;;;;11.23;7.93;;;13.30;99.90;;;;;;5096138;28;20055;-80
2022/07/30 02:37:36;;;;;;;13.05;7.00;;;13.30;99.90;;;;;;5069646;28;20068;-79
2022/07/30 02:40:02;;;;;;;12.93;9.40;;;13.30;99.90;;;;;;5079102;28;20495;-80
2022/07/30 02:42:29;;;;;;;15.13;9.48;;;13.40;99.90;;;;;;5064741;28;20074;-79
2022/07/30 02:44:56;;;;;;;15.43;9.63;;;13.40;99.90;;;;;;5080089;28;20050;-80
2022/07/30 02:47:25;;;;;;;13.18;9.32;;;13.50;99.90;;;;;;5071099;28;20041;-79
2022/07/30 02:49:52;;;;;;;13.05;9.15;;;13.50;99.90;;;;;;5077672;28;20453;-80
2022/07/30 02:52:19;;;;;;;12.57;9.13;;;13.60;99.90;;;;;;5063316;28;20043;-80
2022/07/30 02:54:48;;;;;;;16.05;10.18;;;13.60;99.90;;;;;;5079030;28;20082;-80
2022/07/30 02:57:15;;;;;;;15.98;9.50;;;13.60;99.90;;;;;;5063694;28;20054;-80
2022/07/30 02:59:43;;;;;;;13.82;9.63;;;13.60;99.90;;;;;;5079622;28;20392;-80
2022/07/30 03:02:10;;;;;;;12.73;9.10;;;13.70;99.90;;;;;;5080338;28;20052;-79
2022/07/30 03:04:38;;;;;;;16.85;9.30;;;13.70;99.90;;;;;;5079789;28;20756;-79
2022/07/30 03:07:05;;;;;;;22.05;10.10;;;13.70;99.90;;;;;;5079659;28;20040;-79
2022/07/30 03:09:31;;;;;;;13.48;9.05;;;13.70;99.90;;;;;;5076311;28;20040;-80
2022/07/30 03:11:57;;;;;;;32.63;8.93;;;13.70;99.90;;;;;;5081170;28;20400;-80
2022/07/30 03:14:23;;;;;;;10.13;8.18;;;13.80;99.90;;;;;;5073201;28;20065;-80
2022/07/30 03:16:54;;;;;;;11.73;7.72;;;13.70;99.90;;;;;;5080646;28;20079;-79
2022/07/30 03:19:23;;;;;;;11.25;7.70;;;13.80;99.90;;;;;;5081487;28;20491;-79
2022/07/30 03:21:50;;;;;;;9.20;8.20;;;13.70;99.90;;;;;;5080402;28;20043;-79
2022/07/30 03:24:17;;;;;;;10.70;8.15;;;13.70;99.90;;;;;;5079344;28;20039;-78
2022/07/30 03:26:45;;;;;;;10.65;7.65;;;13.80;99.90;;;;;;5079549;28;20682;-78
2022/07/30 03:29:13;;;;;;;11.13;8.10;;;13.80;99.90;;;;;;5077483;28;20469;-79
2022/07/30 03:31:39;;;;;;;10.95;8.13;;;13.80;99.90;;;;;;5066576;28;20442;-79
2022/07/30 03:34:07;;;;;;;18.20;8.98;;;13.80;99.90;;;;;;5092966;28;20028;-79
2022/07/30 03:36:34;;;;;;;11.45;8.70;;;13.80;99.90;;;;;;5070667;28;20043;-78
2022/07/30 03:39:01;;;;;;;11.25;8.27;;;13.80;99.90;;;;;;5056958;28;20071;-79
2022/07/30 03:41:28;;;;;;;12.55;9.20;;;13.80;99.90;;;;;;5077661;28;20062;-79
2022/07/30 03:43:55;;;;;;;14.48;8.80;;;13.90;99.90;;;;;;5077464;28;20047;-79
2022/07/30 03:46:21;;;;;;;14.05;9.48;;;13.90;99.90;;;;;;5077600;28;20036;-79
2022/07/30 03:48:47;;;;;;;12.45;9.18;;;14.00;99.90;;;;;;5096325;28;20069;-79
2022/07/30 03:51:14;;;;;;;16.50;8.90;;;14.00;99.90;;;;;;5084862;28;20759;-79
2022/07/30 03:53:40;;;;;;;23.83;10.32;;;14.10;99.90;;;;;;5076419;28;20052;-79
2022/07/30 03:56:08;;;;;;;13.93;8.95;;;14.10;99.90;;;;;;5078627;28;20039;-79
2022/07/30 03:58:35;;;;;;;27.52;10.18;;;14.10;99.90;;;;;;5083493;28;20039;-79
2022/07/30 04:01:01;;;;;;;29.67;9.13;;;14.20;99.90;;;;;;5095646;28;20042;-79
2022/07/30 04:03:29;;;;;;;45.60;10.27;;;14.20;99.90;;;;;;5077163;28;20146;-78
2022/07/30 04:05:55;;;;;;;31.48;9.50;;;14.20;99.90;;;;;;5079035;28;20040;-79
2022/07/30 04:08:21;;;;;;;28.75;9.27;;;14.30;99.90;;;;;;5077124;28;20048;-78
2022/07/30 04:10:48;;;;;;;12.48;8.82;;;14.30;99.90;;;;;;5055644;28;20036;-79
2022/07/30 04:13:13;;;;;;;13.40;8.60;;;14.30;99.90;;;;;;5075121;28;20075;-79
2022/07/30 04:15:59;;;;;;;47.58;9.55;;;14.30;99.90;;;;;;5076946;28;20444;-79
2022/07/30 04:18:28;;;;;;;10.43;8.00;;;14.40;99.90;;;;;;5054910;28;20051;-79
2022/07/30 04:20:54;;;;;;;11.05;7.85;;;14.40;99.90;;;;;;5092154;28;20048;-79
2022/07/30 04:23:21;;;;;;;12.40;8.02;;;14.40;99.90;;;;;;5059856;28;20047;-80
2022/07/30 04:25:48;;;;;;;40.72;8.57;;;14.50;99.90;;;;;;5055947;28;20448;-79
2022/07/30 04:28:14;;;;;;;48.95;10.68;;;14.60;99.90;;;;;;5092345;28;20040;-79
2022/07/30 04:30:40;;;;;;;21.92;8.60;;;14.60;99.90;;;;;;5075678;28;20035;-79
2022/07/30 04:33:07;;;;;;;12.00;7.93;;;14.60;99.90;;;;;;5074975;28;20066;-78
2022/07/30 04:35:34;;;;;;;11.38;8.23;;;14.60;99.90;;;;;;5075744;28;20072;-79
2022/07/30 04:38:02;;;;;;;17.20;7.75;;;14.70;99.90;;;;;;5074699;28;20112;-78
2022/07/30 04:40:29;;;;;;;26.13;8.90;;;14.80;99.90;;;;;;5094140;28;20039;-79
2022/07/30 04:42:55;;;;;;;26.60;8.23;;;14.90;99.90;;;;;;5063664;28;20045;-79
2022/07/30 04:45:21;;;;;;;19.30;7.30;;;14.90;99.90;;;;;;5086847;28;20041;-79
2022/07/30 04:47:46;;;;;;;18.85;7.47;;;15.00;99.90;;;;;;5059627;28;20664;-79
2022/07/30 04:50:13;;;;;;;60.92;8.55;;;15.00;99.90;;;;;;5075691;28;20044;-79
2022/07/30 04:52:40;;;;;;;14.15;8.15;;;15.10;99.90;;;;;;5075598;28;20038;-79
2022/07/30 04:55:08;;;;;;;10.50;7.80;;;15.10;99.90;;;;;;5075938;28;20047;-79
2022/07/30 04:57:37;;;;;;;26.55;7.35;;;15.20;99.90;;;;;;5072384;28;20404;-80
2022/07/30 05:00:04;;;;;;;45.97;8.85;;;15.20;99.90;;;;;;5074446;28;20048;-79
2022/07/30 05:02:32;;;;;;;71.18;10.35;;;15.30;99.90;;;;;;5075853;28;20048;-79
2022/07/30 05:05:00;;;;;;;40.72;8.43;;;15.30;99.90;;;;;;5076972;28;20052;-79
2022/07/30 05:07:26;;;;;;;23.05;7.90;;;15.30;99.90;;;;;;5062699;28;20035;-79
2022/07/30 05:09:52;;;;;;;42.10;8.73;;;15.30;99.90;;;;;;5062923;28;20055;-80
2022/07/30 05:12:17;;;;;;;29.30;9.38;;;15.40;99.90;;;;;;5059784;28;20491;-78
2022/07/30 05:14:43;;;;;;;21.00;9.05;;;15.40;99.90;;;;;;5075555;28;20380;-79
2022/07/30 05:17:09;;;;;;;15.48;7.93;;;15.50;99.90;;;;;;5074749;28;20047;-82
2022/07/30 05:19:34;;;;;;;15.48;8.43;;;15.50;99.90;;;;;;5074411;28;20043;-79
2022/07/30 05:22:00;;;;;;;10.52;7.32;;;15.60;99.90;;;;;;5074686;28;20044;-78
2022/07/30 05:24:26;;;;;;;18.83;9.70;;;15.70;99.90;;;;;;5073952;28;20118;-79
2022/07/30 05:26:51;;;;;;;22.10;10.10;;;15.80;99.90;;;;;;5038006;28;20131;-79
2022/07/30 05:29:17;;;;;;;15.63;9.10;;;15.80;99.90;;;;;;5061392;28;20685;-79
2022/07/30 05:31:43;;;;;;;24.65;9.77;;;15.80;99.90;;;;;;5074837;28;20036;-79
2022/07/30 05:34:08;;;;;;;13.88;9.57;;;15.90;99.90;;;;;;5075610;28;20067;-81
2022/07/30 05:36:34;;;;;;;22.75;10.13;;;15.90;99.90;;;;;;5079663;28;20032;-81
2022/07/30 05:39:00;;;;;;;20.52;9.80;;;16.00;99.90;;;;;;5075921;28;20465;-81
2022/07/30 05:41:28;;;;;;;23.40;10.88;;;16.00;99.90;;;;;;5077461;28;20040;-80
2022/07/30 05:43:54;;;;;;;18.20;9.95;;;16.10;99.90;;;;;;5064791;28;20036;-78
2022/07/30 05:46:20;;;;;;;17.23;9.32;;;16.20;99.90;;;;;;5100094;28;20043;-78
2022/07/30 05:48:45;;;;;;;46.50;11.07;;;16.30;99.90;;;;;;5082340;28;20032;-81
2022/07/30 05:51:11;;;;;;;18.13;9.63;;;16.30;99.90;;;;;;5073266;28;20048;-81
2022/07/30 05:53:36;;;;;;;17.10;9.00;;;16.40;99.90;;;;;;5059403;28;20186;-81
2022/07/30 05:56:02;;;;;;;16.10;9.63;;;16.40;99.90;;;;;;5058915;28;20040;-80
2022/07/30 05:58:28;;;;;;;12.68;8.95;;;16.50;99.90;;;;;;5076121;28;20032;-81
2022/07/30 06:00:53;;;;;;;14.10;8.85;;;16.50;99.90;;;;;;5075754;28;20047;-81
2022/07/30 06:03:19;;;;;;;19.27;9.02;;;16.60;99.90;;;;;;5059507;28;20032;-81
2022/07/30 06:05:44;;;;;;;12.15;7.97;;;16.60;99.90;;;;;;5075470;28;20475;-81
2022/07/30 06:08:10;;;;;;;14.57;9.00;;;16.70;99.90;;;;;;5075319;28;20036;-80
2022/07/30 06:10:35;;;;;;;15.07;9.13;;;16.70;99.90;;;;;;5075400;28;20111;-81
2022/07/30 06:13:01;;;;;;;16.98;8.68;;;16.80;99.90;;;;;;5075128;28;20035;-81
2022/07/30 06:15:26;;;;;;;11.82;7.90;;;16.90;99.90;;;;;;5075167;28;20044;-81
2022/07/30 06:17:53;;;;;;;13.90;7.10;;;16.90;99.90;;;;;;5074727;28;20036;-80
2022/07/30 06:20:19;;;;;;;11.48;7.68;;;16.90;99.90;;;;;;5060084;28;20040;-80
2022/07/30 06:22:45;;;;;;;20.08;7.82;;;17.00;99.90;;;;;;5057983;28;20067;-81
2022/07/30 06:25:11;;;;;;;11.98;7.07;;;17.00;99.90;;;;;;5074570;28;20136;-80
2022/07/30 06:27:37;;;;;;;18.77;7.88;;;17.10;99.90;;;;;;5058093;28;20048;-82
2022/07/30 06:30:05;;;;;;;21.75;8.60;;;17.10;99.90;;;;;;5074061;28;20418;-79
2022/07/30 06:32:31;;;;;;;14.05;7.97;;;17.20;99.90;;;;;;5076052;28;20404;-80
2022/07/30 06:34:56;;;;;;;11.10;8.07;;;17.20;99.90;;;;;;5075359;28;20132;-81
2022/07/30 06:37:22;;;;;;;15.40;8.50;;;17.20;99.90;;;;;;5072390;28;20463;-81
2022/07/30 06:39:48;;;;;;;13.32;9.15;;;17.20;99.90;;;;;;5092629;28;20040;-82
2022/07/30 06:42:13;;;;;;;13.45;9.00;;;17.30;99.90;;;;;;5074774;28;20044;-80
2022/07/30 06:44:40;;;;;;;18.90;9.35;;;17.40;99.90;;;;;;5074410;28;20036;-81
2022/07/30 06:47:06;;;;;;;18.27;9.23;;;17.50;99.90;;;;;;5076285;28;20040;-81
2022/07/30 06:49:32;;;;;;;21.08;9.98;;;17.70;99.90;;;;;;5058950;28;20335;-81
2022/07/30 06:51:58;;;;;;;18.95;10.20;;;17.70;99.90;;;;;;5076553;28;20040;-81
2022/07/30 06:54:24;;;;;;;16.30;10.00;;;17.70;99.90;;;;;;5058458;28;20376;-82
2022/07/30 06:56:50;;;;;;;16.33;10.23;;;17.80;99.90;;;;;;5058069;28;20047;-82
2022/07/30 06:59:15;;;;;;;15.77;10.68;;;17.90;99.90;;;;;;5086597;28;20028;-80
2022/07/30 07:01:41;;;;;;;19.42;10.13;;;18.00;99.90;;;;;;5092561;28;20064;-80
2022/07/30 07:04:07;;;;;;;21.33;9.82;;;18.30;99.90;;;;;;5059068;28;20471;-80
2022/07/30 07:06:32;;;;;;;16.42;9.65;;;18.70;99.90;;;;;;5073678;28;20040;-76
2022/07/30 07:08:58;;;;;;;15.43;8.93;;;19.10;99.90;;;;;;5075770;28;20120;-75
2022/07/30 07:11:24;;;;;;;18.58;9.40;;;19.20;99.90;;;;;;5057313;28;20037;-76
2022/07/30 07:13:49;;;;;;;18.10;8.70;;;19.10;99.90;;;;;;5056186;28;20045;-75
2022/07/30 07:16:15;;;;;;;12.75;8.23;;;19.20;99.90;;;;;;5056244;28;20403;-76
2022/07/30 07:18:41;;;;;;;14.45;8.40;;;19.20;99.90;;;;;;5056073;28;20037;-75
2022/07/30 07:21:07;;;;;;;12.07;7.75;;;19.20;99.90;;;;;;5055742;28;20045;-75
2022/07/30 07:23:33;;;;;;;15.35;7.43;;;19.30;99.90;;;;;;5056119;28;20091;-75
2022/07/30 07:25:59;;;;;;;12.93;8.25;;;19.40;99.90;;;;;;5055883;28;20072;-75
2022/07/30 07:28:25;;;;;;;15.80;7.65;;;19.50;99.90;;;;;;5055657;28;20044;-76
2022/07/30 07:30:50;;;;;;;12.23;7.35;;;19.60;99.90;;;;;;5055919;28;20132;-76
2022/07/30 07:33:16;;;;;;;12.48;8.23;;;19.80;99.90;;;;;;5055736;28;20581;-76
2022/07/30 07:35:41;;;;;;;13.43;6.63;;;20.00;99.90;;;;;;5055872;28;20040;-75
2022/07/30 07:38:07;;;;;;;14.27;6.13;;;20.30;99.90;;;;;;5056202;28;20048;-75
2022/07/30 07:40:33;;;;;;;17.35;6.68;;;20.50;99.90;;;;;;5055645;28;20037;-75
2022/07/30 07:42:58;;;;;;;10.55;5.45;;;20.60;99.90;;;;;;5055758;28;20047;-75
2022/07/30 07:45:24;;;;;;;9.52;5.40;;;20.60;99.90;;;;;;5055935;28;20072;-75
2022/07/30 07:47:49;;;;;;;9.32;5.85;;;20.90;99.90;;;;;;5055704;28;20109;-75
2022/07/30 07:50:17;;;;;;;10.68;5.40;;;21.30;99.90;;;;;;5055605;28;20036;-76
2022/07/30 07:52:42;;;;;;;9.13;3.92;;;21.50;99.90;;;;;;5055649;28;20036;-75
2022/07/30 07:55:08;;;;;;;8.48;3.60;;;21.60;99.90;;;;;;5055430;28;20047;-75
2022/07/30 07:57:42;;;;;;;13.93;4.75;;;21.80;99.90;;;;;;5055488;28;20071;-75
2022/07/30 08:00:10;;;;;;;13.30;4.22;;;22.40;99.90;;;;;;5073132;28;20464;-76
2022/07/30 08:02:36;;;;;;;6.03;3.47;;;22.70;99.90;;;;;;5055656;28;20044;-76
2022/07/30 08:05:06;;;;;;;10.23;3.55;;;22.60;99.90;;;;;;5055526;28;20044;-76
2022/07/30 08:07:32;;;;;;;11.15;3.75;;;22.90;99.90;;;;;;5055263;28;20052;-77
2022/07/30 08:09:58;;;;;;;7.90;3.75;;;23.30;99.90;;;;;;5054818;28;20045;-76
2022/07/30 08:12:24;;;;;;;8.43;3.80;;;23.50;99.90;;;;;;5054301;28;20041;-76
2022/07/30 08:14:50;;;;;;;8.00;3.47;;;23.60;99.90;;;;;;5038595;28;20044;-76
2022/07/30 08:17:16;;;;;;;10.48;2.67;;;23.60;99.90;;;;;;5055442;28;20040;-78
2022/07/30 08:19:41;;;;;;;6.18;2.90;;;23.40;99.90;;;;;;5073884;28;20629;-79
2022/07/30 08:22:07;;;;;;;5.45;2.53;;;23.50;99.90;;;;;;5056120;28;20071;-79
2022/07/30 08:24:33;;;;;;;5.40;2.75;;;23.70;99.90;;;;;;5077764;28;20055;-79
2022/07/30 08:26:58;;;;;;;5.60;2.60;;;24.10;99.90;;;;;;5059705;28;20108;-78
2022/07/30 08:29:24;;;;;;;5.68;2.78;;;24.20;99.90;;;;;;5058675;28;20033;-78
2022/07/30 08:31:49;;;;;;;6.45;2.72;;;24.00;99.90;;;;;;5041910;28;20090;-78
2022/07/30 08:34:15;;;;;;;6.72;2.70;;;23.80;99.90;;;;;;5056541;28;20048;-78
2022/07/30 08:36:41;;;;;;;6.45;2.97;;;23.70;99.90;;;;;;5055631;28;20044;-78
2022/07/30 08:39:07;;;;;;;9.30;2.70;;;23.60;99.90;;;;;;5056438;28;20051;-78
2022/07/30 08:41:35;;;;;;;7.30;2.90;;;23.40;99.90;;;;;;5055389;28;20058;-76
2022/07/30 08:44:02;;;;;;;6.07;2.67;;;23.10;99.90;;;;;;5037980;28;20037;-77
2022/07/30 08:46:32;;;;;;;7.50;3.38;;;23.10;99.90;;;;;;5072502;28;20036;-76
2022/07/30 08:48:58;;;;;;;10.27;2.85;;;23.50;99.90;;;;;;5054481;28;20040;-77
2022/07/30 08:51:23;;;;;;;8.38;2.53;;;23.90;99.90;;;;;;5054349;28;20044;-77
2022/07/30 08:53:49;;;;;;;5.75;3.05;;;24.50;99.90;;;;;;5054637;28;20036;-77
2022/07/30 08:56:15;;;;;;;9.77;2.90;;;24.60;99.90;;;;;;5072382;28;20036;-77
2022/07/30 08:58:41;;;;;;;7.90;2.75;;;24.40;99.90;;;;;;5054384;28;20537;-77
2022/07/30 09:01:07;;;;;;;8.38;2.85;;;24.40;99.90;;;;;;5053792;28;20040;-77
2022/07/30 09:03:33;;;;;;;7.28;2.50;;;24.60;99.90;;;;;;5061478;28;20032;-77
2022/07/30 09:06:01;;;;;;;5.90;2.35;;;25.00;99.90;;;;;;5073986;28;20040;-78
2022/07/30 09:08:26;;;;;;;3.70;2.20;;;25.40;99.90;;;;;;5059210;28;20067;-77
2022/07/30 09:10:52;;;;;;;3.72;2.20;;;25.60;99.90;;;;;;5068109;28;20483;-78
2022/07/30 09:13:29;;;;;;;5.30;2.08;;;25.70;99.90;;;;;;5054328;28;20071;-77
2022/07/30 09:15:56;;;;;;;9.10;2.83;;;25.80;99.90;;;;;;5054543;28;20080;-78
2022/07/30 09:18:32;;;;;;;3.33;2.00;;;25.80;99.90;;;;;;5087778;28;20048;-78
2022/07/30 09:21:14;;;;;;;6.88;3.10;;;26.00;99.90;;;;;;5089620;28;20048;-77
2022/07/30 09:23:40;;;;;;;7.82;2.97;;;26.20;99.90;;;;;;5087155;28;20032;-80
2022/07/30 09:26:05;;;;;;;6.57;2.55;;;26.40;99.90;;;;;;5075226;28;20054;-79
2022/07/30 09:28:32;;;;;;;5.30;1.95;;;26.60;99.90;;;;;;5095425;28;20048;-80
2022/07/30 09:30:59;;;;;;;6.00;2.15;;;26.50;99.90;;;;;;5098622;28;20036;-82
2022/07/30 09:33:39;;;;;;;6.10;2.10;;;26.70;99.90;;;;;;5058226;28;20039;-80
2022/07/30 09:36:07;;;;;;;5.75;2.00;;;26.90;99.90;;;;;;5065744;28;20063;-80
2022/07/30 09:38:59;;;;;;;7.85;1.90;;;27.20;99.90;;;;;;5089644;28;20043;-79
2022/07/30 09:41:34;;;;;;;4.18;2.08;;;27.40;99.30;;;;;;5038925;28;20051;-80
2022/07/30 09:44:03;;;;;;;7.50;1.90;;;27.30;98.10;;;;;;5062676;28;20161;-84
2022/07/30 09:46:42;;;;;;;6.32;2.03;;;27.30;99.50;;;;;;5075276;28;20043;-81
2022/07/30 09:49:19;;;;;;;2.60;1.77;;;27.30;92.40;;;;;;5074958;28;20055;-80
2022/07/30 09:51:45;;;;;;;5.35;2.75;;;27.40;93.40;;;;;;5055161;28;20028;-81
2022/07/30 09:54:10;;;;;;;4.07;1.67;;;27.40;96.00;;;;;;5056821;28;20032;-82
2022/07/30 09:56:36;;;;;;;3.90;1.77;;;27.30;96.80;;;;;;5074715;28;20041;-81
2022/07/30 09:59:01;;;;;;;5.05;1.70;;;27.30;97.20;;;;;;5049976;28;20044;-83
2022/07/30 10:01:27;;;;;;;6.18;2.03;;;27.30;96.10;;;;;;5071495;28;20043;-83
2022/07/30 10:03:53;;;;;;;4.68;1.85;;;27.20;95.80;;;;;;5060511;28;20061;-83
2022/07/30 10:06:32;;;;;;;3.15;1.60;;;27.30;96.10;;;;;;5098571;28;20036;-82
2022/07/30 10:08:58;;;;;;;5.15;1.85;;;27.40;93.10;;;;;;5074814;28;20051;-78
2022/07/30 10:11:25;;;;;;;3.45;1.65;;;27.50;94.70;;;;;;5074244;28;20121;-78
2022/07/30 10:13:54;;;;;;;7.28;1.85;;;27.50;93.60;;;;;;5072930;28;20169;-80
2022/07/30 10:16:21;;;;;;;5.03;2.20;;;27.70;91.80;;;;;;5073212;28;20394;-78
2022/07/30 10:18:47;;;;;;;4.47;1.90;;;27.90;91.90;;;;;;5070936;28;20068;-80
2022/07/30 10:21:14;;;;;;;8.75;2.42;;;28.00;91.80;;;;;;5073107;28;20043;-80
2022/07/30 10:23:40;;;;;;;5.93;2.55;;;27.70;89.10;;;;;;5074547;28;20654;-83
2022/07/30 10:26:07;;;;;;;8.02;3.40;;;27.00;87.40;;;;;;5054412;28;20089;-82
2022/07/30 10:28:33;;;;;;;5.82;2.72;;;26.50;91.00;;;;;;5073884;28;20044;-81
2022/07/30 10:30:59;;;;;;;5.88;2.30;;;26.60;91.10;;;;;;5067962;28;20123;-82
2022/07/30 10:33:28;;;;;;;8.23;2.60;;;26.80;91.90;;;;;;5074320;28;20085;-82
2022/07/30 10:35:54;;;;;;;6.82;2.35;;;27.00;92.90;;;;;;5076209;28;20482;-83
2022/07/30 10:38:24;;;;;;;5.35;2.10;;;26.90;93.30;;;;;;5079205;28;20127;-84
2022/07/30 10:40:57;;;;;;;7.65;3.38;;;26.80;93.20;;;;;;5079636;28;20050;-82
2022/07/30 10:43:47;;;;;;;6.40;2.85;;;26.70;94.40;;;;;;5070787;28;20044;-82
2022/07/30 10:46:35;;;;;;;6.15;2.33;;;26.80;92.30;;;;;;5099859;28;20071;-82
2022/07/30 10:49:13;;;;;;;7.43;2.53;;;26.80;95.20;;;;;;5078691;28;20055;-81
2022/07/30 10:51:44;;;;;;;7.63;2.78;;;26.70;92.50;;;;;;5079058;28;20036;-86
2022/07/30 10:54:37;;;;;;;8.30;2.90;;;26.70;93.70;;;;;;5065935;28;20120;-85
2022/07/30 10:57:16;;;;;;;10.88;3.10;;;26.80;93.80;;;;;;5060809;28;20551;-83
2022/07/30 10:59:51;;;;;;;6.50;3.03;;;26.60;94.60;;;;;;5097009;28;20584;-82
2022/07/30 11:02:18;;;;;;;6.38;2.42;;;26.20;92.10;;;;;;5069955;28;20450;-85
2022/07/30 11:04:44;;;;;;;7.28;2.13;;;25.90;94.40;;;;;;5068514;28;20044;-83
2022/07/30 11:07:31;;;;;;;4.15;1.88;;;25.90;94.50;;;;;;5077123;28;20040;-83
2022/07/30 11:09:59;;;;;;;4.65;2.15;;;26.10;94.40;;;;;;5093116;28;20407;-85
2022/07/30 11:12:46;;;;;;;8.65;2.17;;;26.40;93.20;;;;;;5078381;28;20044;-83
2022/07/30 11:15:13;;;;;;;4.13;1.83;;;26.70;92.40;;;;;;5059141;28;20053;-84
2022/07/30 11:17:59;;;;;;;5.90;2.00;;;26.80;91.30;;;;;;5076415;28;20398;-85
2022/07/30 11:20:26;;;;;;;4.97;1.67;;;27.10;91.70;;;;;;5056747;28;20123;-84
2022/07/30 11:22:52;;;;;;;6.22;1.70;;;27.10;90.20;;;;;;5072559;28;20055;-84
2022/07/30 11:25:21;;;;;;;5.72;1.77;;;27.00;90.80;;;;;;5074255;28;20106;-84
2022/07/30 11:27:50;;;;;;;6.95;2.13;;;26.90;91.00;;;;;;5074549;28;20048;-85
2022/07/30 11:30:16;;;;;;;7.43;2.13;;;26.70;89.80;;;;;;5072253;28;20028;-84
2022/07/30 11:32:43;;;;;;;4.05;1.73;;;26.60;90.90;;;;;;5073232;28;20078;-84
2022/07/30 11:35:24;;;;;;;3.17;1.75;;;26.40;90.40;;;;;;5072254;28;20475;-84
2022/07/30 11:38:06;;;;;;;4.00;1.63;;;26.50;91.10;;;;;;5069618;28;20048;-84
2022/07/30 11:40:40;;;;;;;5.60;1.70;;;26.50;91.50;;;;;;5076783;28;20165;-82
2022/07/30 11:43:28;;;;;;;5.80;1.83;;;26.50;92.20;;;;;;5057959;28;20032;-84
2022/07/30 11:46:11;;;;;;;4.70;1.90;;;26.60;90.50;;;;;;5072663;28;20043;-82
2022/07/30 11:48:41;;;;;;;3.85;1.60;;;26.30;87.60;;;;;;5074266;28;20028;-84
2022/07/30 11:51:08;;;;;;;3.45;1.52;;;26.10;91.40;;;;;;5074411;28;20057;-82
2022/07/30 11:53:34;;;;;;;4.72;1.50;;;26.20;90.10;;;;;;5077743;28;20118;-82
2022/07/30 11:56:01;;;;;;;5.47;1.60;;;26.20;89.70;;;;;;5075185;28;20059;-82
2022/07/30 11:58:31;;;;;;;6.43;1.63;;;26.30;82.70;;;;;;5075675;28;20071;-83
2022/07/30 12:01:03;;;;;;;4.30;1.77;;;26.60;82.70;;;;;;5073418;28;20075;-84
2022/07/30 12:03:33;;;;;;;3.58;1.67;;;26.70;82.40;;;;;;5070555;28;20449;-83
2022/07/30 12:06:08;;;;;;;4.05;1.75;;;26.40;84.90;;;;;;5074414;28;20039;-86
2022/07/30 12:08:41;;;;;;;4.65;2.15;;;26.20;89.30;;;;;;5072001;28;20093;-81
2022/07/30 12:11:08;;;;;;;5.03;1.65;;;26.10;89.80;;;;;;5069446;28;20044;-80
2022/07/30 12:13:35;;;;;;;5.72;1.65;;;26.20;83.70;;;;;;5072135;28;20031;-80
2022/07/30 12:16:05;;;;;;;5.55;2.08;;;26.40;80.60;;;;;;5073609;28;20072;-83
2022/07/30 12:18:31;;;;;;;3.22;1.52;;;26.50;82.90;;;;;;5058105;28;20040;-81
2022/07/30 12:21:02;;;;;;;3.92;1.90;;;26.60;83.20;;;;;;5074273;28;20055;-81
2022/07/30 12:23:29;;;;;;;3.92;1.48;;;26.50;80.00;;;;;;5073655;28;20061;-79
2022/07/30 12:25:55;;;;;;;8.13;1.75;;;26.50;82.70;;;;;;5072420;28;20161;-79
2022/07/30 12:28:28;;;;;;;2.22;1.35;;;26.60;83.20;;;;;;5071487;28;20052;-80
2022/07/30 12:30:55;;;;;;;3.55;1.58;;;26.70;78.50;;;;;;5071535;28;20072;-82
2022/07/30 12:33:22;;;;;;;3.78;1.17;;;26.90;77.50;;;;;;5071197;28;20039;-82
2022/07/30 12:35:49;;;;;;;6.63;1.42;;;26.90;74.50;;;;;;5073838;28;20036;-83
2022/07/30 12:38:16;;;;;;;4.03;1.58;;;27.00;72.00;;;;;;5074840;28;20040;-82
2022/07/30 12:40:58;;;;;;;6.25;1.17;;;26.90;72.70;;;;;;5064828;28;20044;-83
2022/07/30 12:43:48;;;;;;;1.75;1.27;;;26.80;71.30;;;;;;5070717;28;20040;-83
2022/07/30 12:46:28;;;;;;;5.90;1.40;;;26.80;73.40;;;;;;5072895;28;20055;-82
2022/07/30 12:49:02;;;;;;;2.65;1.23;;;26.70;67.30;;;;;;5056723;28;20044;-83